sensor_id;sensor_type;location;lat;lon;timestamp;temperature;humidity
3246;DHT22;1635;48.000;10.582;2022-10-16T00:01:46;12.10;99.90
3246;DHT22;1635;48.000;10.582;2022-10-16T00:04:17;12.10;99.90
3246;DHT22;1635;48.000;10.582;2022-10-16T00:06:45;12.10;99.90
3246;DHT22;1635;48.000;10.582;2022-10-16T00:09:13;12.10;99.90
3246;DHT22;1635;48.000;10.582;2022-10-16T00:11:43;12.20;99.90
3246;DHT22;1635;48.000;10.582;2022-10-16T00:14:13;12.10;99.90
3246;DHT22;1635;48.000;10.582;2022-10-16T00:16:42;12.10;99.90
3246;DHT22;1635;48.000;10.582;2022-10-16T00:19:11;12.10;99.90
3246;DHT22;1635;48.000;10.582;2022-10-16T00:21:40;12.10;99.90
3246;DHT22;1635;48.000;10.582;2022-10-16T00:24:09;12.10;99.90
3246;DHT22;1635;48.000;10.582;2022-10-16T00:26:38;12.10;99.90
3246;DHT22;1635;48.000;10.582;2022-10-16T00:29:07;12.00;99.90
3246;DHT22;1635;48.000;10.582;2022-10-16T00:31:35;12.00;99.90
3246;DHT22;1635;48.000;10.582;2022-10-16T00:34:05;11.90;99.90
3246;DHT22;1635;48.000;10.582;2022-10-16T00:36:35;11.80;99.90
3246;DHT22;1635;48.000;10.582;2022-10-16T00:39:03;11.80;99.90
3246;DHT22;1635;48.000;10.582;2022-10-16T00:41:31;11.70;99.90
3246;DHT22;1635;48.000;10.582;2022-10-16T00:44:03;11.60;99.90
3246;DHT22;1635;48.000;10.582;2022-10-16T00:46:51;11.60;99.90
3246;DHT22;1635;48.000;10.582;2022-10-16T00:49:20;11.50;99.90
3246;DHT22;1635;48.000;10.582;2022-10-16T00:51:53;11.40;99.90
3246;DHT22;1635;48.000;10.582;2022-10-16T00:54:28;11.40;99.90
3246;DHT22;1635;48.000;10.582;2022-10-16T00:56:58;11.40;99.90
3246;DHT22;1635;48.000;10.582;2022-10-16T00:59:34;11.40;99.90
3246;DHT22;1635;48.000;10.582;2022-10-16T01:02:05;11.30;99.90
3246;DHT22;1635;48.000;10.582;2022-10-16T01:04:37;11.20;99.90
3246;DHT22;1635;48.000;10.582;2022-10-16T01:07:34;11.20;99.90
3246;DHT22;1635;48.000;10.582;2022-10-16T01:10:30;11.20;99.90
3246;DHT22;1635;48.000;10.582;2022-10-16T01:13:10;11.10;99.90
3246;DHT22;1635;48.000;10.582;2022-10-16T01:16:07;11.00;99.90
3246;DHT22;1635;48.000;10.582;2022-10-16T01:18:47;11.00;99.90
3246;DHT22;1635;48.000;10.582;2022-10-16T01:21:35;10.90;99.90
3246;DHT22;1635;48.000;10.582;2022-10-16T01:24:24;10.90;99.90
3246;DHT22;1635;48.000;10.582;2022-10-16T01:27:20;10.90;99.90
3246;DHT22;1635;48.000;10.582;2022-10-16T01:30:01;10.90;99.90
3246;DHT22;1635;48.000;10.582;2022-10-16T01:32:50;10.80;99.90
3246;DHT22;1635;48.000;10.582;2022-10-16T01:35:25;10.80;99.90
3246;DHT22;1635;48.000;10.582;2022-10-16T01:40:42;10.90;99.90
3246;DHT22;1635;48.000;10.582;2022-10-16T01:43:28;10.90;99.90
3246;DHT22;1635;48.000;10.582;2022-10-16T01:46:00;11.00;99.90
3246;DHT22;1635;48.000;10.582;2022-10-16T01:48:29;11.00;99.90
3246;DHT22;1635;48.000;10.582;2022-10-16T01:51:18;11.00;99.90
3246;DHT22;1635;48.000;10.582;2022-10-16T01:53:50;11.10;99.90
3246;DHT22;1635;48.000;10.582;2022-10-16T01:56:21;11.10;99.90
3246;DHT22;1635;48.000;10.582;2022-10-16T01:58:56;11.20;99.90
3246;DHT22;1635;48.000;10.582;2022-10-16T02:01:29;11.20;99.90
3246;DHT22;1635;48.000;10.582;2022-10-16T02:04:03;11.10;99.90
3246;DHT22;1635;48.000;10.582;2022-10-16T02:06:32;11.10;99.90
3246;DHT22;1635;48.000;10.582;2022-10-16T02:09:00;11.00;99.90
3246;DHT22;1635;48.000;10.582;2022-10-16T02:11:28;11.00;99.90
3246;DHT22;1635;48.000;10.582;2022-10-16T02:14:02;11.10;99.90
3246;DHT22;1635;48.000;10.582;2022-10-16T02:16:39;11.10;99.90
3246;DHT22;1635;48.000;10.582;2022-10-16T02:19:19;11.10;99.90
3246;DHT22;1635;48.000;10.582;2022-10-16T02:22:15;11.10;99.90
3246;DHT22;1635;48.000;10.582;2022-10-16T02:25:17;11.20;99.90
3246;DHT22;1635;48.000;10.582;2022-10-16T02:28:40;11.20;99.90
3246;DHT22;1635;48.000;10.582;2022-10-16T02:31:32;11.20;99.90
3246;DHT22;1635;48.000;10.582;2022-10-16T02:34:03;11.30;99.90
3246;DHT22;1635;48.000;10.582;2022-10-16T02:36:33;11.20;99.90
3246;DHT22;1635;48.000;10.582;2022-10-16T02:39:04;11.20;99.90
3246;DHT22;1635;48.000;10.582;2022-10-16T02:41:33;11.20;99.90
3246;DHT22;1635;48.000;10.582;2022-10-16T02:44:02;11.30;99.90
3246;DHT22;1635;48.000;10.582;2022-10-16T02:46:30;11.40;99.90
3246;DHT22;1635;48.000;10.582;2022-10-16T02:48:58;11.30;99.90
3246;DHT22;1635;48.000;10.582;2022-10-16T02:51:26;11.30;99.90
3246;DHT22;1635;48.000;10.582;2022-10-16T02:53:56;11.30;99.90
3246;DHT22;1635;48.000;10.582;2022-10-16T02:56:26;11.40;99.90
3246;DHT22;1635;48.000;10.582;2022-10-16T02:59:30;11.40;99.90
3246;DHT22;1635;48.000;10.582;2022-10-16T03:02:05;11.40;99.90
3246;DHT22;1635;48.000;10.582;2022-10-16T03:04:33;11.50;99.90
3246;DHT22;1635;48.000;10.582;2022-10-16T03:07:01;11.60;99.90
3246;DHT22;1635;48.000;10.582;2022-10-16T03:09:30;11.70;99.90
3246;DHT22;1635;48.000;10.582;2022-10-16T03:11:58;11.80;99.90
3246;DHT22;1635;48.000;10.582;2022-10-16T03:14:30;11.80;99.90
3246;DHT22;1635;48.000;10.582;2022-10-16T03:16:59;11.80;99.90
3246;DHT22;1635;48.000;10.582;2022-10-16T03:19:27;11.80;99.90
3246;DHT22;1635;48.000;10.582;2022-10-16T03:21:55;11.80;99.90
3246;DHT22;1635;48.000;10.582;2022-10-16T03:24:23;11.80;99.90
3246;DHT22;1635;48.000;10.582;2022-10-16T03:26:51;11.80;99.90
3246;DHT22;1635;48.000;10.582;2022-10-16T03:29:19;11.80;99.90
3246;DHT22;1635;48.000;10.582;2022-10-16T03:31:47;11.90;99.90
3246;DHT22;1635;48.000;10.582;2022-10-16T03:34:17;11.90;99.90
3246;DHT22;1635;48.000;10.582;2022-10-16T03:36:45;11.90;99.90
3246;DHT22;1635;48.000;10.582;2022-10-16T03:39:13;12.00;99.90
3246;DHT22;1635;48.000;10.582;2022-10-16T03:41:41;12.00;99.90
3246;DHT22;1635;48.000;10.582;2022-10-16T03:44:10;12.00;99.90
3246;DHT22;1635;48.000;10.582;2022-10-16T03:46:38;12.00;99.90
3246;DHT22;1635;48.000;10.582;2022-10-16T03:49:06;12.00;99.90
3246;DHT22;1635;48.000;10.582;2022-10-16T03:51:36;12.00;99.90
3246;DHT22;1635;48.000;10.582;2022-10-16T03:54:05;12.10;99.90
3246;DHT22;1635;48.000;10.582;2022-10-16T03:56:33;12.10;99.90
3246;DHT22;1635;48.000;10.582;2022-10-16T03:59:01;12.10;99.90
3246;DHT22;1635;48.000;10.582;2022-10-16T04:01:31;12.20;99.90
3246;DHT22;1635;48.000;10.582;2022-10-16T04:03:59;12.20;99.90
3246;DHT22;1635;48.000;10.582;2022-10-16T04:06:27;12.30;99.90
3246;DHT22;1635;48.000;10.582;2022-10-16T04:08:55;12.30;99.90
3246;DHT22;1635;48.000;10.582;2022-10-16T04:11:23;12.30;99.90
3246;DHT22;1635;48.000;10.582;2022-10-16T04:13:51;12.30;99.90
3246;DHT22;1635;48.000;10.582;2022-10-16T04:16:20;12.40;99.90
3246;DHT22;1635;48.000;10.582;2022-10-16T04:18:49;12.30;99.90
3246;DHT22;1635;48.000;10.582;2022-10-16T04:21:17;12.30;99.90
3246;DHT22;1635;48.000;10.582;2022-10-16T04:23:45;12.20;99.90
3246;DHT22;1635;48.000;10.582;2022-10-16T04:26:14;12.30;99.90
3246;DHT22;1635;48.000;10.582;2022-10-16T04:28:42;12.30;99.90
3246;DHT22;1635;48.000;10.582;2022-10-16T04:31:11;12.30;99.90
3246;DHT22;1635;48.000;10.582;2022-10-16T04:33:42;12.30;99.90
3246;DHT22;1635;48.000;10.582;2022-10-16T04:36:12;12.30;99.90
3246;DHT22;1635;48.000;10.582;2022-10-16T04:38:40;12.20;99.90
3246;DHT22;1635;48.000;10.582;2022-10-16T04:41:08;12.30;99.90
3246;DHT22;1635;48.000;10.582;2022-10-16T04:43:36;12.30;99.90
3246;DHT22;1635;48.000;10.582;2022-10-16T04:46:04;12.20;99.90
3246;DHT22;1635;48.000;10.582;2022-10-16T04:48:33;12.20;99.90
3246;DHT22;1635;48.000;10.582;2022-10-16T04:51:01;12.20;99.90
3246;DHT22;1635;48.000;10.582;2022-10-16T04:53:29;12.10;99.90
3246;DHT22;1635;48.000;10.582;2022-10-16T04:55:57;12.20;99.90
3246;DHT22;1635;48.000;10.582;2022-10-16T04:58:26;12.20;99.90
3246;DHT22;1635;48.000;10.582;2022-10-16T05:00:54;12.30;99.90
3246;DHT22;1635;48.000;10.582;2022-10-16T05:03:22;12.30;99.90
3246;DHT22;1635;48.000;10.582;2022-10-16T05:05:51;12.30;99.90
3246;DHT22;1635;48.000;10.582;2022-10-16T05:08:19;12.20;99.90
3246;DHT22;1635;48.000;10.582;2022-10-16T05:10:47;12.20;99.90
3246;DHT22;1635;48.000;10.582;2022-10-16T05:13:15;12.30;99.90
3246;DHT22;1635;48.000;10.582;2022-10-16T05:15:48;12.30;99.90
3246;DHT22;1635;48.000;10.582;2022-10-16T05:18:17;12.30;99.90
3246;DHT22;1635;48.000;10.582;2022-10-16T05:20:45;12.30;99.90
3246;DHT22;1635;48.000;10.582;2022-10-16T05:23:18;12.30;99.90
3246;DHT22;1635;48.000;10.582;2022-10-16T05:25:53;12.20;99.90
3246;DHT22;1635;48.000;10.582;2022-10-16T05:28:25;12.30;99.90
3246;DHT22;1635;48.000;10.582;2022-10-16T05:30:58;12.30;99.90
3246;DHT22;1635;48.000;10.582;2022-10-16T05:33:27;12.30;99.90
3246;DHT22;1635;48.000;10.582;2022-10-16T05:35:55;12.30;99.90
3246;DHT22;1635;48.000;10.582;2022-10-16T05:38:23;12.20;99.90
3246;DHT22;1635;48.000;10.582;2022-10-16T05:40:56;12.20;99.90
3246;DHT22;1635;48.000;10.582;2022-10-16T05:43:30;12.10;99.90
3246;DHT22;1635;48.000;10.582;2022-10-16T05:46:00;12.10;99.90
3246;DHT22;1635;48.000;10.582;2022-10-16T05:48:30;12.10;99.90
3246;DHT22;1635;48.000;10.582;2022-10-16T05:51:04;12.00;99.90
3246;DHT22;1635;48.000;10.582;2022-10-16T05:53:36;11.90;99.90
3246;DHT22;1635;48.000;10.582;2022-10-16T05:56:05;11.90;99.90
3246;DHT22;1635;48.000;10.582;2022-10-16T05:58:37;12.00;99.90
3246;DHT22;1635;48.000;10.582;2022-10-16T06:01:16;12.00;99.90
3246;DHT22;1635;48.000;10.582;2022-10-16T06:03:45;12.10;99.90
3246;DHT22;1635;48.000;10.582;2022-10-16T06:06:15;12.20;99.90
3246;DHT22;1635;48.000;10.582;2022-10-16T06:08:45;12.30;99.90
3246;DHT22;1635;48.000;10.582;2022-10-16T06:11:19;12.30;99.90
3246;DHT22;1635;48.000;10.582;2022-10-16T06:13:55;12.30;99.90
3246;DHT22;1635;48.000;10.582;2022-10-16T06:16:25;12.20;99.90
3246;DHT22;1635;48.000;10.582;2022-10-16T06:18:55;12.30;99.90
3246;DHT22;1635;48.000;10.582;2022-10-16T06:21:24;12.30;99.90
3246;DHT22;1635;48.000;10.582;2022-10-16T06:23:54;12.20;99.90
3246;DHT22;1635;48.000;10.582;2022-10-16T06:26:26;12.10;99.90
3246;DHT22;1635;48.000;10.582;2022-10-16T06:28:59;12.10;99.90
3246;DHT22;1635;48.000;10.582;2022-10-16T06:31:28;12.10;99.90
3246;DHT22;1635;48.000;10.582;2022-10-16T06:33:59;12.20;99.90
3246;DHT22;1635;48.000;10.582;2022-10-16T06:36:28;12.30;99.90
3246;DHT22;1635;48.000;10.582;2022-10-16T06:38:56;12.40;99.90
3246;DHT22;1635;48.000;10.582;2022-10-16T06:41:24;12.60;99.90
3246;DHT22;1635;48.000;10.582;2022-10-16T06:43:52;12.70;99.90
3246;DHT22;1635;48.000;10.582;2022-10-16T06:46:22;12.90;99.90
3246;DHT22;1635;48.000;10.582;2022-10-16T06:48:52;13.00;99.90
3246;DHT22;1635;48.000;10.582;2022-10-16T06:51:22;13.30;99.90
3246;DHT22;1635;48.000;10.582;2022-10-16T06:53:59;13.50;99.90
3246;DHT22;1635;48.000;10.582;2022-10-16T06:56:33;13.80;99.90
3246;DHT22;1635;48.000;10.582;2022-10-16T06:59:01;13.90;99.90
3246;DHT22;1635;48.000;10.582;2022-10-16T07:01:33;14.10;99.90
3246;DHT22;1635;48.000;10.582;2022-10-16T07:04:01;14.30;99.90
3246;DHT22;1635;48.000;10.582;2022-10-16T07:06:32;14.60;99.90
3246;DHT22;1635;48.000;10.582;2022-10-16T07:09:05;14.80;99.90
3246;DHT22;1635;48.000;10.582;2022-10-16T07:11:37;15.10;99.90
3246;DHT22;1635;48.000;10.582;2022-10-16T07:14:22;15.30;99.90
3246;DHT22;1635;48.000;10.582;2022-10-16T07:16:52;15.50;99.90
3246;DHT22;1635;48.000;10.582;2022-10-16T07:19:21;15.60;99.90
3246;DHT22;1635;48.000;10.582;2022-10-16T07:21:50;15.80;99.90
3246;DHT22;1635;48.000;10.582;2022-10-16T07:24:17;15.80;99.90
3246;DHT22;1635;48.000;10.582;2022-10-16T07:26:47;15.80;99.90
3246;DHT22;1635;48.000;10.582;2022-10-16T07:29:16;15.90;99.90
3246;DHT22;1635;48.000;10.582;2022-10-16T07:31:48;15.90;99.90
3246;DHT22;1635;48.000;10.582;2022-10-16T07:34:17;15.90;99.90
3246;DHT22;1635;48.000;10.582;2022-10-16T07:36:48;16.00;99.90
3246;DHT22;1635;48.000;10.582;2022-10-16T07:39:17;16.10;99.90
3246;DHT22;1635;48.000;10.582;2022-10-16T07:41:45;16.10;99.90
3246;DHT22;1635;48.000;10.582;2022-10-16T07:44:15;16.20;99.90
3246;DHT22;1635;48.000;10.582;2022-10-16T07:46:43;16.10;99.90
3246;DHT22;1635;48.000;10.582;2022-10-16T07:49:11;16.10;99.90
3246;DHT22;1635;48.000;10.582;2022-10-16T07:51:39;16.10;99.90
3246;DHT22;1635;48.000;10.582;2022-10-16T07:54:09;16.50;99.90
3246;DHT22;1635;48.000;10.582;2022-10-16T07:56:37;16.90;99.90
3246;DHT22;1635;48.000;10.582;2022-10-16T07:59:09;17.30;99.90
3246;DHT22;1635;48.000;10.582;2022-10-16T08:01:38;18.00;99.90
3246;DHT22;1635;48.000;10.582;2022-10-16T08:04:05;18.70;99.90
3246;DHT22;1635;48.000;10.582;2022-10-16T08:06:36;19.20;99.90
3246;DHT22;1635;48.000;10.582;2022-10-16T08:09:08;19.80;99.90
3246;DHT22;1635;48.000;10.582;2022-10-16T08:11:36;20.40;99.90
3246;DHT22;1635;48.000;10.582;2022-10-16T08:14:03;20.70;99.90
3246;DHT22;1635;48.000;10.582;2022-10-16T08:16:31;21.30;99.90
3246;DHT22;1635;48.000;10.582;2022-10-16T08:18:58;21.70;99.90
3246;DHT22;1635;48.000;10.582;2022-10-16T08:21:27;21.80;99.90
3246;DHT22;1635;48.000;10.582;2022-10-16T08:23:54;22.20;99.90
3246;DHT22;1635;48.000;10.582;2022-10-16T08:26:26;22.30;99.90
3246;DHT22;1635;48.000;10.582;2022-10-16T08:28:54;22.40;99.90
3246;DHT22;1635;48.000;10.582;2022-10-16T08:31:23;22.60;99.90
3246;DHT22;1635;48.000;10.582;2022-10-16T08:33:50;22.60;99.90
3246;DHT22;1635;48.000;10.582;2022-10-16T08:36:19;23.10;99.90
3246;DHT22;1635;48.000;10.582;2022-10-16T08:38:48;23.70;99.90
3246;DHT22;1635;48.000;10.582;2022-10-16T08:48:12;24.90;99.90
3246;DHT22;1635;48.000;10.582;2022-10-16T08:50:26;24.80;99.90
3246;DHT22;1635;48.000;10.582;2022-10-16T08:52:57;25.00;99.90
3246;DHT22;1635;48.000;10.582;2022-10-16T08:55:41;24.80;99.90
3246;DHT22;1635;48.000;10.582;2022-10-16T08:58:20;25.00;99.90
3246;DHT22;1635;48.000;10.582;2022-10-16T09:00:53;25.10;99.90
3246;DHT22;1635;48.000;10.582;2022-10-16T09:06:47;24.60;99.90
3246;DHT22;1635;48.000;10.582;2022-10-16T09:09:57;24.20;99.90
3246;DHT22;1635;48.000;10.582;2022-10-16T09:12:38;24.00;99.90
3246;DHT22;1635;48.000;10.582;2022-10-16T09:18:44;23.50;99.90
3246;DHT22;1635;48.000;10.582;2022-10-16T09:21:26;23.70;99.90
3246;DHT22;1635;48.000;10.582;2022-10-16T09:24:06;23.70;99.90
3246;DHT22;1635;48.000;10.582;2022-10-16T09:26:37;23.80;99.90
3246;DHT22;1635;48.000;10.582;2022-10-16T09:29:04;23.70;99.90
3246;DHT22;1635;48.000;10.582;2022-10-16T09:31:36;23.70;99.90
3246;DHT22;1635;48.000;10.582;2022-10-16T09:34:05;24.00;99.90
3246;DHT22;1635;48.000;10.582;2022-10-16T09:36:44;24.10;99.90
3246;DHT22;1635;48.000;10.582;2022-10-16T09:39:13;24.00;99.90
3246;DHT22;1635;48.000;10.582;2022-10-16T09:41:44;23.80;99.90
3246;DHT22;1635;48.000;10.582;2022-10-16T09:44:19;23.90;99.90
3246;DHT22;1635;48.000;10.582;2022-10-16T09:47:01;24.10;99.90
3246;DHT22;1635;48.000;10.582;2022-10-16T09:49:29;24.10;99.90
3246;DHT22;1635;48.000;10.582;2022-10-16T09:52:28;24.30;99.90
3246;DHT22;1635;48.000;10.582;2022-10-16T09:55:12;24.40;99.90
3246;DHT22;1635;48.000;10.582;2022-10-16T09:57:55;24.40;99.90
3246;DHT22;1635;48.000;10.582;2022-10-16T10:00:24;24.40;99.90
3246;DHT22;1635;48.000;10.582;2022-10-16T10:02:53;24.60;99.90
3246;DHT22;1635;48.000;10.582;2022-10-16T10:05:26;24.40;99.90
3246;DHT22;1635;48.000;10.582;2022-10-16T10:08:03;24.20;99.90
3246;DHT22;1635;48.000;10.582;2022-10-16T10:10:41;24.00;99.90
3246;DHT22;1635;48.000;10.582;2022-10-16T10:13:19;24.20;99.90
3246;DHT22;1635;48.000;10.582;2022-10-16T10:15:50;24.40;99.90
3246;DHT22;1635;48.000;10.582;2022-10-16T10:18:19;24.90;99.90
3246;DHT22;1635;48.000;10.582;2022-10-16T10:21:03;25.30;99.90
3246;DHT22;1635;48.000;10.582;2022-10-16T10:23:32;25.10;99.90
3246;DHT22;1635;48.000;10.582;2022-10-16T10:26:18;25.30;99.90
3246;DHT22;1635;48.000;10.582;2022-10-16T10:37:43;26.00;99.90
3246;DHT22;1635;48.000;10.582;2022-10-16T10:40:08;26.20;99.90
3246;DHT22;1635;48.000;10.582;2022-10-16T10:42:51;25.90;99.90
3246;DHT22;1635;48.000;10.582;2022-10-16T10:45:27;26.00;99.90
3246;DHT22;1635;48.000;10.582;2022-10-16T10:51:01;26.20;99.90
3246;DHT22;1635;48.000;10.582;2022-10-16T10:53:42;26.20;99.90
3246;DHT22;1635;48.000;10.582;2022-10-16T11:04:55;25.50;99.90
3246;DHT22;1635;48.000;10.582;2022-10-16T11:07:32;25.40;99.90
3246;DHT22;1635;48.000;10.582;2022-10-16T11:10:22;25.20;99.90
3246;DHT22;1635;48.000;10.582;2022-10-16T11:13:00;25.40;99.90
3246;DHT22;1635;48.000;10.582;2022-10-16T11:15:37;25.30;99.90
3246;DHT22;1635;48.000;10.582;2022-10-16T11:18:27;25.20;99.90
3246;DHT22;1635;48.000;10.582;2022-10-16T11:21:07;25.20;99.90
3246;DHT22;1635;48.000;10.582;2022-10-16T11:26:15;24.80;99.90
3246;DHT22;1635;48.000;10.582;2022-10-16T11:28:49;24.90;99.90
3246;DHT22;1635;48.000;10.582;2022-10-16T11:37:14;26.10;99.90
3246;DHT22;1635;48.000;10.582;2022-10-16T11:39:44;26.50;99.90
3246;DHT22;1635;48.000;10.582;2022-10-16T11:42:27;26.90;99.90
3246;DHT22;1635;48.000;10.582;2022-10-16T11:45:26;27.70;99.90
3246;DHT22;1635;48.000;10.582;2022-10-16T11:50:56;29.00;99.90
3246;DHT22;1635;48.000;10.582;2022-10-16T11:53:53;29.30;99.90
3246;DHT22;1635;48.000;10.582;2022-10-16T11:56:23;28.70;99.90
3246;DHT22;1635;48.000;10.582;2022-10-16T11:59:08;29.40;99.90
3246;DHT22;1635;48.000;10.582;2022-10-16T12:01:48;29.90;99.90
3246;DHT22;1635;48.000;10.582;2022-10-16T12:04:48;30.00;99.90
3246;DHT22;1635;48.000;10.582;2022-10-16T12:07:23;29.80;99.90
3246;DHT22;1635;48.000;10.582;2022-10-16T12:09:53;29.70;99.90
3246;DHT22;1635;48.000;10.582;2022-10-16T12:15:26;29.00;99.90
3246;DHT22;1635;48.000;10.582;2022-10-16T12:18:22;29.40;99.90
3246;DHT22;1635;48.000;10.582;2022-10-16T12:20:58;30.20;99.90
3246;DHT22;1635;48.000;10.582;2022-10-16T12:23:26;30.40;99.90
3246;DHT22;1635;48.000;10.582;2022-10-16T12:25:56;31.10;99.90
3246;DHT22;1635;48.000;10.582;2022-10-16T12:28:31;31.10;99.90
3246;DHT22;1635;48.000;10.582;2022-10-16T12:31:02;31.00;99.90
3246;DHT22;1635;48.000;10.582;2022-10-16T12:33:42;31.10;99.90
3246;DHT22;1635;48.000;10.582;2022-10-16T12:36:30;30.60;99.90
3246;DHT22;1635;48.000;10.582;2022-10-16T12:39:00;31.00;99.90
3246;DHT22;1635;48.000;10.582;2022-10-16T12:41:34;31.60;99.90
3246;DHT22;1635;48.000;10.582;2022-10-16T12:44:03;30.80;99.90
3246;DHT22;1635;48.000;10.582;2022-10-16T12:51:49;31.60;99.90
3246;DHT22;1635;48.000;10.582;2022-10-16T12:54:48;32.10;99.50
3246;DHT22;1635;48.000;10.582;2022-10-16T12:57:29;33.10;98.50
3246;DHT22;1635;48.000;10.582;2022-10-16T13:00:27;32.80;98.00
3246;DHT22;1635;48.000;10.582;2022-10-16T13:09:19;31.90;98.40
3246;DHT22;1635;48.000;10.582;2022-10-16T13:14:46;32.80;95.30
3246;DHT22;1635;48.000;10.582;2022-10-16T13:28:17;32.70;95.50
3246;DHT22;1635;48.000;10.582;2022-10-16T13:30:56;32.50;93.60
3246;DHT22;1635;48.000;10.582;2022-10-16T13:33:42;32.20;93.50
3246;DHT22;1635;48.000;10.582;2022-10-16T13:36:35;32.50;94.00
3246;DHT22;1635;48.000;10.582;2022-10-16T13:39:19;32.50;94.50
3246;DHT22;1635;48.000;10.582;2022-10-16T13:42:09;32.80;93.90
3246;DHT22;1635;48.000;10.582;2022-10-16T13:44:44;33.90;92.60
3246;DHT22;1635;48.000;10.582;2022-10-16T13:47:18;34.40;92.80
3246;DHT22;1635;48.000;10.582;2022-10-16T13:49:58;33.70;92.70
3246;DHT22;1635;48.000;10.582;2022-10-16T13:52:26;33.40;92.20
3246;DHT22;1635;48.000;10.582;2022-10-16T13:54:55;32.80;92.30
3246;DHT22;1635;48.000;10.582;2022-10-16T13:57:30;32.80;93.10
3246;DHT22;1635;48.000;10.582;2022-10-16T14:00:22;32.30;93.20
3246;DHT22;1635;48.000;10.582;2022-10-16T14:03:14;32.10;93.20
3246;DHT22;1635;48.000;10.582;2022-10-16T14:06:02;31.90;93.00
3246;DHT22;1635;48.000;10.582;2022-10-16T14:08:31;31.50;94.10
3246;DHT22;1635;48.000;10.582;2022-10-16T14:11:00;31.00;95.00
3246;DHT22;1635;48.000;10.582;2022-10-16T14:13:37;30.60;95.80
3246;DHT22;1635;48.000;10.582;2022-10-16T14:16:08;29.50;97.40
3246;DHT22;1635;48.000;10.582;2022-10-16T14:18:39;28.40;97.20
3246;DHT22;1635;48.000;10.582;2022-10-16T14:21:12;27.60;98.40
3246;DHT22;1635;48.000;10.582;2022-10-16T14:23:43;27.20;99.50
3246;DHT22;1635;48.000;10.582;2022-10-16T14:28:42;26.00;99.90
3246;DHT22;1635;48.000;10.582;2022-10-16T14:31:30;25.50;99.90
3246;DHT22;1635;48.000;10.582;2022-10-16T14:33:59;25.30;99.90
3246;DHT22;1635;48.000;10.582;2022-10-16T14:36:28;25.10;99.90
3246;DHT22;1635;48.000;10.582;2022-10-16T14:39:03;25.00;99.90
3246;DHT22;1635;48.000;10.582;2022-10-16T14:41:41;24.80;99.90
3246;DHT22;1635;48.000;10.582;2022-10-16T14:44:12;24.50;99.90
3246;DHT22;1635;48.000;10.582;2022-10-16T14:46:41;24.30;99.90
3246;DHT22;1635;48.000;10.582;2022-10-16T14:51:39;23.90;99.90
3246;DHT22;1635;48.000;10.582;2022-10-16T14:54:13;23.80;99.90
3246;DHT22;1635;48.000;10.582;2022-10-16T14:56:56;23.80;99.90
3246;DHT22;1635;48.000;10.582;2022-10-16T14:59:38;23.60;99.90
3246;DHT22;1635;48.000;10.582;2022-10-16T15:02:28;23.60;99.90
3246;DHT22;1635;48.000;10.582;2022-10-16T15:04:57;23.30;99.90
3246;DHT22;1635;48.000;10.582;2022-10-16T15:07:26;23.20;99.90
3246;DHT22;1635;48.000;10.582;2022-10-16T15:09:55;23.00;99.90
3246;DHT22;1635;48.000;10.582;2022-10-16T15:12:24;22.80;99.90
3246;DHT22;1635;48.000;10.582;2022-10-16T15:14:53;22.60;99.90
3246;DHT22;1635;48.000;10.582;2022-10-16T15:17:21;22.30;99.90
3246;DHT22;1635;48.000;10.582;2022-10-16T15:19:49;21.90;99.90
3246;DHT22;1635;48.000;10.582;2022-10-16T15:22:21;21.70;99.90
3246;DHT22;1635;48.000;10.582;2022-10-16T15:24:51;21.60;99.90
3246;DHT22;1635;48.000;10.582;2022-10-16T15:27:26;21.40;99.90
3246;DHT22;1635;48.000;10.582;2022-10-16T15:29:55;21.10;99.90
3246;DHT22;1635;48.000;10.582;2022-10-16T15:32:23;21.00;99.90
3246;DHT22;1635;48.000;10.582;2022-10-16T15:34:51;20.90;99.90
3246;DHT22;1635;48.000;10.582;2022-10-16T15:37:19;20.70;99.90
3246;DHT22;1635;48.000;10.582;2022-10-16T15:39:47;20.50;99.90
3246;DHT22;1635;48.000;10.582;2022-10-16T15:42:14;20.30;99.90
3246;DHT22;1635;48.000;10.582;2022-10-16T15:44:42;20.10;99.90
3246;DHT22;1635;48.000;10.582;2022-10-16T15:47:13;20.00;99.90
3246;DHT22;1635;48.000;10.582;2022-10-16T15:49:41;19.80;99.90
3246;DHT22;1635;48.000;10.582;2022-10-16T15:52:08;19.60;99.90
3246;DHT22;1635;48.000;10.582;2022-10-16T15:54:36;19.50;99.90
3246;DHT22;1635;48.000;10.582;2022-10-16T15:57:05;19.20;99.90
3246;DHT22;1635;48.000;10.582;2022-10-16T15:59:36;19.10;99.90
3246;DHT22;1635;48.000;10.582;2022-10-16T16:02:04;18.90;99.90
3246;DHT22;1635;48.000;10.582;2022-10-16T16:04:33;18.70;99.90
3246;DHT22;1635;48.000;10.582;2022-10-16T16:07:17;18.50;99.90
3246;DHT22;1635;48.000;10.582;2022-10-16T16:09:45;18.30;99.90
3246;DHT22;1635;48.000;10.582;2022-10-16T16:12:13;18.20;99.90
3246;DHT22;1635;48.000;10.582;2022-10-16T16:14:41;18.00;99.90
3246;DHT22;1635;48.000;10.582;2022-10-16T16:17:10;17.80;99.90
3246;DHT22;1635;48.000;10.582;2022-10-16T16:19:38;17.70;99.90
3246;DHT22;1635;48.000;10.582;2022-10-16T16:22:05;17.50;99.90
3246;DHT22;1635;48.000;10.582;2022-10-16T16:24:41;17.40;99.90
3246;DHT22;1635;48.000;10.582;2022-10-16T16:27:09;17.20;99.90
3246;DHT22;1635;48.000;10.582;2022-10-16T16:29:38;17.00;99.90
3246;DHT22;1635;48.000;10.582;2022-10-16T16:32:05;16.90;99.90
3246;DHT22;1635;48.000;10.582;2022-10-16T16:34:34;16.80;99.90
3246;DHT22;1635;48.000;10.582;2022-10-16T16:37:02;16.60;99.90
3246;DHT22;1635;48.000;10.582;2022-10-16T16:39:30;16.50;99.90
3246;DHT22;1635;48.000;10.582;2022-10-16T16:41:58;16.40;99.90
3246;DHT22;1635;48.000;10.582;2022-10-16T16:44:28;16.30;99.90
3246;DHT22;1635;48.000;10.582;2022-10-16T16:46:57;16.10;99.90
3246;DHT22;1635;48.000;10.582;2022-10-16T16:49:25;16.00;99.90
3246;DHT22;1635;48.000;10.582;2022-10-16T16:51:53;15.90;99.90
3246;DHT22;1635;48.000;10.582;2022-10-16T16:54:21;15.80;99.90
3246;DHT22;1635;48.000;10.582;2022-10-16T16:56:49;15.70;99.90
3246;DHT22;1635;48.000;10.582;2022-10-16T16:59:20;15.60;99.90
3246;DHT22;1635;48.000;10.582;2022-10-16T17:01:49;15.50;99.90
3246;DHT22;1635;48.000;10.582;2022-10-16T17:04:24;15.50;99.90
3246;DHT22;1635;48.000;10.582;2022-10-16T17:06:55;15.40;99.90
3246;DHT22;1635;48.000;10.582;2022-10-16T17:09:25;15.30;99.90
3246;DHT22;1635;48.000;10.582;2022-10-16T17:11:53;15.10;99.90
3246;DHT22;1635;48.000;10.582;2022-10-16T17:14:20;14.90;99.90
3246;DHT22;1635;48.000;10.582;2022-10-16T17:16:49;14.80;99.90
3246;DHT22;1635;48.000;10.582;2022-10-16T17:19:19;14.70;99.90
3246;DHT22;1635;48.000;10.582;2022-10-16T17:21:49;14.60;99.90
3246;DHT22;1635;48.000;10.582;2022-10-16T17:24:18;14.60;99.90
3246;DHT22;1635;48.000;10.582;2022-10-16T17:26:48;14.50;99.90
3246;DHT22;1635;48.000;10.582;2022-10-16T17:29:17;14.50;99.90
3246;DHT22;1635;48.000;10.582;2022-10-16T17:31:46;14.50;99.90
3246;DHT22;1635;48.000;10.582;2022-10-16T17:34:18;14.40;99.90
3246;DHT22;1635;48.000;10.582;2022-10-16T17:36:47;14.40;99.90
3246;DHT22;1635;48.000;10.582;2022-10-16T17:39:16;14.30;99.90
3246;DHT22;1635;48.000;10.582;2022-10-16T17:41:52;14.20;99.90
3246;DHT22;1635;48.000;10.582;2022-10-16T17:44:20;14.20;99.90